sensor_id;sensor_type;location;lat;lon;timestamp;temperature;humidity
12049;DHT22;6085;49.452;8.502;2023-04-25T00:01:42;7.80;99.90
12049;DHT22;6085;49.452;8.502;2023-04-25T00:05:45;7.80;99.90
12049;DHT22;6085;49.452;8.502;2023-04-25T00:09:48;7.90;99.90
12049;DHT22;6085;49.452;8.502;2023-04-25T00:13:51;7.90;99.90
12049;DHT22;6085;49.452;8.502;2023-04-25T00:17:53;7.90;99.90
12049;DHT22;6085;49.452;8.502;2023-04-25T00:21:56;7.80;99.90
12049;DHT22;6085;49.452;8.502;2023-04-25T00:25:58;7.90;99.90
12049;DHT22;6085;49.452;8.502;2023-04-25T00:30:01;7.90;99.90
12049;DHT22;6085;49.452;8.502;2023-04-25T00:34:03;7.90;99.90
12049;DHT22;6085;49.452;8.502;2023-04-25T00:38:06;7.90;99.90
12049;DHT22;6085;49.452;8.502;2023-04-25T00:42:08;8.00;99.90
12049;DHT22;6085;49.452;8.502;2023-04-25T00:46:10;8.00;99.90
12049;DHT22;6085;49.452;8.502;2023-04-25T00:50:13;8.00;99.90
12049;DHT22;6085;49.452;8.502;2023-04-25T00:54:16;8.00;99.90
12049;DHT22;6085;49.452;8.502;2023-04-25T00:58:19;8.00;99.90
12049;DHT22;6085;49.452;8.502;2023-04-25T01:02:21;8.00;99.90
12049;DHT22;6085;49.452;8.502;2023-04-25T01:06:23;8.10;99.90
12049;DHT22;6085;49.452;8.502;2023-04-25T01:10:27;8.00;99.90
12049;DHT22;6085;49.452;8.502;2023-04-25T01:14:29;8.10;99.90
12049;DHT22;6085;49.452;8.502;2023-04-25T01:18:31;8.10;99.90
12049;DHT22;6085;49.452;8.502;2023-04-25T01:22:34;8.00;99.90
12049;DHT22;6085;49.452;8.502;2023-04-25T01:26:37;8.00;99.90
12049;DHT22;6085;49.452;8.502;2023-04-25T01:30:40;8.10;99.90
12049;DHT22;6085;49.452;8.502;2023-04-25T01:34:42;8.10;99.90
12049;DHT22;6085;49.452;8.502;2023-04-25T01:38:45;8.10;99.90
12049;DHT22;6085;49.452;8.502;2023-04-25T01:42:48;8.20;99.90
12049;DHT22;6085;49.452;8.502;2023-04-25T01:46:50;8.20;99.90
12049;DHT22;6085;49.452;8.502;2023-04-25T01:50:52;8.30;99.90
12049;DHT22;6085;49.452;8.502;2023-04-25T01:54:57;8.20;99.90
12049;DHT22;6085;49.452;8.502;2023-04-25T01:58:59;8.00;99.90
12049;DHT22;6085;49.452;8.502;2023-04-25T02:03:01;8.00;99.90
12049;DHT22;6085;49.452;8.502;2023-04-25T02:07:04;7.90;99.90
12049;DHT22;6085;49.452;8.502;2023-04-25T02:11:07;7.80;99.90
12049;DHT22;6085;49.452;8.502;2023-04-25T02:15:09;7.80;99.90
12049;DHT22;6085;49.452;8.502;2023-04-25T02:19:12;7.80;99.90
12049;DHT22;6085;49.452;8.502;2023-04-25T02:23:14;7.70;99.90
12049;DHT22;6085;49.452;8.502;2023-04-25T02:27:18;7.70;99.90
12049;DHT22;6085;49.452;8.502;2023-04-25T02:31:20;7.70;99.90
12049;DHT22;6085;49.452;8.502;2023-04-25T02:35:22;7.70;99.90
12049;DHT22;6085;49.452;8.502;2023-04-25T02:39:24;7.70;99.90
12049;DHT22;6085;49.452;8.502;2023-04-25T02:43:29;7.70;99.90
12049;DHT22;6085;49.452;8.502;2023-04-25T02:47:31;7.60;99.90
12049;DHT22;6085;49.452;8.502;2023-04-25T02:51:33;7.60;99.90
12049;DHT22;6085;49.452;8.502;2023-04-25T02:55:35;7.50;99.90
12049;DHT22;6085;49.452;8.502;2023-04-25T02:59:38;7.50;99.90
12049;DHT22;6085;49.452;8.502;2023-04-25T03:03:40;7.50;99.90
12049;DHT22;6085;49.452;8.502;2023-04-25T03:07:42;7.50;99.90
12049;DHT22;6085;49.452;8.502;2023-04-25T03:11:45;7.50;99.90
12049;DHT22;6085;49.452;8.502;2023-04-25T03:15:48;7.60;99.90
12049;DHT22;6085;49.452;8.502;2023-04-25T03:19:50;7.50;99.90
12049;DHT22;6085;49.452;8.502;2023-04-25T03:23:52;7.50;99.90
12049;DHT22;6085;49.452;8.502;2023-04-25T03:27:54;7.50;99.90
12049;DHT22;6085;49.452;8.502;2023-04-25T03:31:57;7.40;99.90
12049;DHT22;6085;49.452;8.502;2023-04-25T03:35:59;7.40;99.90
12049;DHT22;6085;49.452;8.502;2023-04-25T03:40:01;7.40;99.90
12049;DHT22;6085;49.452;8.502;2023-04-25T03:44:04;7.40;99.90
12049;DHT22;6085;49.452;8.502;2023-04-25T03:48:07;7.40;99.90
12049;DHT22;6085;49.452;8.502;2023-04-25T03:52:09;7.40;99.90
12049;DHT22;6085;49.452;8.502;2023-04-25T03:56:11;7.40;99.90
12049;DHT22;6085;49.452;8.502;2023-04-25T04:00:14;7.40;99.90
12049;DHT22;6085;49.452;8.502;2023-04-25T04:04:18;7.40;99.90
12049;DHT22;6085;49.452;8.502;2023-04-25T04:08:20;7.40;99.90
12049;DHT22;6085;49.452;8.502;2023-04-25T04:12:22;7.40;99.90
12049;DHT22;6085;49.452;8.502;2023-04-25T04:16:23;7.50;99.90
12049;DHT22;6085;49.452;8.502;2023-04-25T04:20:28;7.50;99.90
12049;DHT22;6085;49.452;8.502;2023-04-25T04:24:30;7.40;99.90
12049;DHT22;6085;49.452;8.502;2023-04-25T04:28:33;7.40;99.90
12049;DHT22;6085;49.452;8.502;2023-04-25T04:32:36;7.40;99.90
12049;DHT22;6085;49.452;8.502;2023-04-25T04:36:39;7.40;99.90
12049;DHT22;6085;49.452;8.502;2023-04-25T04:40:41;7.50;99.90
12049;DHT22;6085;49.452;8.502;2023-04-25T04:44:43;7.50;99.90
12049;DHT22;6085;49.452;8.502;2023-04-25T04:48:45;7.50;99.90
12049;DHT22;6085;49.452;8.502;2023-04-25T04:52:49;7.50;99.90
12049;DHT22;6085;49.452;8.502;2023-04-25T04:56:51;7.60;99.90
12049;DHT22;6085;49.452;8.502;2023-04-25T05:00:53;7.70;99.90
12049;DHT22;6085;49.452;8.502;2023-04-25T05:04:56;7.70;99.90
12049;DHT22;6085;49.452;8.502;2023-04-25T05:08:59;7.70;99.90
12049;DHT22;6085;49.452;8.502;2023-04-25T05:13:01;7.70;99.90
12049;DHT22;6085;49.452;8.502;2023-04-25T05:17:03;7.70;99.90
12049;DHT22;6085;49.452;8.502;2023-04-25T05:21:07;7.70;99.90
12049;DHT22;6085;49.452;8.502;2023-04-25T05:25:10;7.70;99.90
12049;DHT22;6085;49.452;8.502;2023-04-25T05:29:12;7.80;99.90
12049;DHT22;6085;49.452;8.502;2023-04-25T05:33:14;7.90;99.90
12049;DHT22;6085;49.452;8.502;2023-04-25T05:37:16;7.90;99.90
12049;DHT22;6085;49.452;8.502;2023-04-25T05:41:19;7.90;99.90
12049;DHT22;6085;49.452;8.502;2023-04-25T05:45:21;7.90;99.90
12049;DHT22;6085;49.452;8.502;2023-04-25T05:49:23;8.00;99.90
12049;DHT22;6085;49.452;8.502;2023-04-25T05:53:25;8.00;99.90
12049;DHT22;6085;49.452;8.502;2023-04-25T05:57:29;8.20;99.90
12049;DHT22;6085;49.452;8.502;2023-04-25T06:01:31;8.30;99.90
12049;DHT22;6085;49.452;8.502;2023-04-25T06:05:33;8.30;99.90
12049;DHT22;6085;49.452;8.502;2023-04-25T06:09:35;8.30;99.90
12049;DHT22;6085;49.452;8.502;2023-04-25T06:13:38;8.30;99.90
12049;DHT22;6085;49.452;8.502;2023-04-25T06:17:40;8.30;99.90
12049;DHT22;6085;49.452;8.502;2023-04-25T06:21:43;8.30;99.90
12049;DHT22;6085;49.452;8.502;2023-04-25T06:25:45;8.20;99.90
12049;DHT22;6085;49.452;8.502;2023-04-25T06:29:49;8.20;99.90
12049;DHT22;6085;49.452;8.502;2023-04-25T06:33:51;8.20;99.90
12049;DHT22;6085;49.452;8.502;2023-04-25T06:37:55;8.20;99.90
12049;DHT22;6085;49.452;8.502;2023-04-25T06:41:57;8.30;99.90
12049;DHT22;6085;49.452;8.502;2023-04-25T06:46:00;8.40;99.90
12049;DHT22;6085;49.452;8.502;2023-04-25T06:50:02;8.40;99.90
12049;DHT22;6085;49.452;8.502;2023-04-25T06:54:04;8.30;99.90
12049;DHT22;6085;49.452;8.502;2023-04-25T06:58:06;8.10;99.90
12049;DHT22;6085;49.452;8.502;2023-04-25T07:02:10;8.00;99.90
12049;DHT22;6085;49.452;8.502;2023-04-25T07:06:11;8.00;99.90
12049;DHT22;6085;49.452;8.502;2023-04-25T07:10:13;8.10;99.90
12049;DHT22;6085;49.452;8.502;2023-04-25T07:14:16;8.30;99.90
12049;DHT22;6085;49.452;8.502;2023-04-25T07:18:19;8.60;99.90
12049;DHT22;6085;49.452;8.502;2023-04-25T07:22:21;8.60;99.90
12049;DHT22;6085;49.452;8.502;2023-04-25T07:26:23;8.70;99.90
12049;DHT22;6085;49.452;8.502;2023-04-25T07:30:25;8.70;99.90
12049;DHT22;6085;49.452;8.502;2023-04-25T07:34:28;8.80;99.90
12049;DHT22;6085;49.452;8.502;2023-04-25T07:38:30;8.90;99.90
12049;DHT22;6085;49.452;8.502;2023-04-25T07:42:33;8.90;99.90
12049;DHT22;6085;49.452;8.502;2023-04-25T07:46:35;8.90;99.90
12049;DHT22;6085;49.452;8.502;2023-04-25T07:50:38;8.90;99.90
12049;DHT22;6085;49.452;8.502;2023-04-25T07:54:40;8.90;99.90
12049;DHT22;6085;49.452;8.502;2023-04-25T07:58:42;8.80;99.90
12049;DHT22;6085;49.452;8.502;2023-04-25T08:02:44;9.10;99.90
12049;DHT22;6085;49.452;8.502;2023-04-25T08:06:47;9.30;99.90
12049;DHT22;6085;49.452;8.502;2023-04-25T08:10:49;9.60;99.90
12049;DHT22;6085;49.452;8.502;2023-04-25T08:14:52;10.10;99.90
12049;DHT22;6085;49.452;8.502;2023-04-25T08:18:54;10.30;99.90
12049;DHT22;6085;49.452;8.502;2023-04-25T08:22:58;10.60;99.90
12049;DHT22;6085;49.452;8.502;2023-04-25T08:27:00;11.10;99.90
12049;DHT22;6085;49.452;8.502;2023-04-25T08:31:03;11.80;99.90
12049;DHT22;6085;49.452;8.502;2023-04-25T08:35:05;13.20;99.90
12049;DHT22;6085;49.452;8.502;2023-04-25T08:39:09;14.50;99.90
12049;DHT22;6085;49.452;8.502;2023-04-25T08:43:13;15.10;99.90
12049;DHT22;6085;49.452;8.502;2023-04-25T08:47:15;14.40;99.90
12049;DHT22;6085;49.452;8.502;2023-04-25T08:51:22;14.50;99.90
12049;DHT22;6085;49.452;8.502;2023-04-25T08:55:27;15.10;99.90
12049;DHT22;6085;49.452;8.502;2023-04-25T08:59:30;15.30;99.90
12049;DHT22;6085;49.452;8.502;2023-04-25T09:03:32;15.10;99.90
12049;DHT22;6085;49.452;8.502;2023-04-25T09:07:34;15.60;99.90
12049;DHT22;6085;49.452;8.502;2023-04-25T09:11:38;15.60;99.90
12049;DHT22;6085;49.452;8.502;2023-04-25T09:15:49;15.80;99.90
12049;DHT22;6085;49.452;8.502;2023-04-25T09:19:52;16.70;99.90
12049;DHT22;6085;49.452;8.502;2023-04-25T09:23:54;16.70;99.90
12049;DHT22;6085;49.452;8.502;2023-04-25T09:27:57;16.30;99.90
12049;DHT22;6085;49.452;8.502;2023-04-25T09:32:15;17.00;99.90
12049;DHT22;6085;49.452;8.502;2023-04-25T09:36:17;18.70;99.90
12049;DHT22;6085;49.452;8.502;2023-04-25T09:40:19;17.90;99.90
12049;DHT22;6085;49.452;8.502;2023-04-25T09:44:24;16.40;99.90
12049;DHT22;6085;49.452;8.502;2023-04-25T09:48:28;16.30;99.90
12049;DHT22;6085;49.452;8.502;2023-04-25T09:52:30;16.50;99.90
12049;DHT22;6085;49.452;8.502;2023-04-25T09:56:35;16.60;99.90
12049;DHT22;6085;49.452;8.502;2023-04-25T10:00:40;16.60;99.90
12049;DHT22;6085;49.452;8.502;2023-04-25T10:04:45;15.90;99.90
12049;DHT22;6085;49.452;8.502;2023-04-25T10:08:51;15.00;99.90
12049;DHT22;6085;49.452;8.502;2023-04-25T10:12:56;15.00;99.90
12049;DHT22;6085;49.452;8.502;2023-04-25T10:17:00;14.50;99.90
12049;DHT22;6085;49.452;8.502;2023-04-25T10:21:04;16.90;99.90
12049;DHT22;6085;49.452;8.502;2023-04-25T10:25:07;20.40;98.90
12049;DHT22;6085;49.452;8.502;2023-04-25T10:29:10;20.50;95.80
12049;DHT22;6085;49.452;8.502;2023-04-25T10:33:18;18.90;97.80
12049;DHT22;6085;49.452;8.502;2023-04-25T10:37:20;18.00;98.40
12049;DHT22;6085;49.452;8.502;2023-04-25T10:41:22;16.40;99.90
12049;DHT22;6085;49.452;8.502;2023-04-25T10:45:25;15.20;99.90
12049;DHT22;6085;49.452;8.502;2023-04-25T10:49:33;14.40;99.90
12049;DHT22;6085;49.452;8.502;2023-04-25T10:53:36;13.90;99.90
12049;DHT22;6085;49.452;8.502;2023-04-25T10:57:39;13.70;99.90
12049;DHT22;6085;49.452;8.502;2023-04-25T11:01:42;14.00;99.90
12049;DHT22;6085;49.452;8.502;2023-04-25T11:05:46;14.50;99.90
12049;DHT22;6085;49.452;8.502;2023-04-25T11:09:50;14.20;99.90
12049;DHT22;6085;49.452;8.502;2023-04-25T11:13:52;13.40;99.90
12049;DHT22;6085;49.452;8.502;2023-04-25T11:17:54;12.90;99.90
12049;DHT22;6085;49.452;8.502;2023-04-25T11:21:59;12.70;99.90
12049;DHT22;6085;49.452;8.502;2023-04-25T11:26:02;13.00;99.90
12049;DHT22;6085;49.452;8.502;2023-04-25T11:30:11;12.90;99.90
12049;DHT22;6085;49.452;8.502;2023-04-25T11:34:17;12.80;99.90
12049;DHT22;6085;49.452;8.502;2023-04-25T11:38:21;13.20;99.90
12049;DHT22;6085;49.452;8.502;2023-04-25T11:42:23;14.20;99.90
12049;DHT22;6085;49.452;8.502;2023-04-25T11:46:25;14.80;99.90
12049;DHT22;6085;49.452;8.502;2023-04-25T11:50:28;15.10;99.90
12049;DHT22;6085;49.452;8.502;2023-04-25T11:54:31;14.80;99.90
12049;DHT22;6085;49.452;8.502;2023-04-25T11:58:54;15.00;99.90
12049;DHT22;6085;49.452;8.502;2023-04-25T12:02:57;14.70;99.90
12049;DHT22;6085;49.452;8.502;2023-04-25T12:06:59;15.00;99.90
12049;DHT22;6085;49.452;8.502;2023-04-25T12:11:03;14.80;99.90
12049;DHT22;6085;49.452;8.502;2023-04-25T12:15:13;14.70;99.90
12049;DHT22;6085;49.452;8.502;2023-04-25T12:19:20;14.90;99.90
12049;DHT22;6085;49.452;8.502;2023-04-25T12:23:25;14.30;99.90
12049;DHT22;6085;49.452;8.502;2023-04-25T12:27:31;14.40;99.90
12049;DHT22;6085;49.452;8.502;2023-04-25T12:31:34;14.30;99.90
12049;DHT22;6085;49.452;8.502;2023-04-25T12:35:36;14.20;99.90
12049;DHT22;6085;49.452;8.502;2023-04-25T12:39:38;14.40;99.90
12049;DHT22;6085;49.452;8.502;2023-04-25T12:43:41;14.80;99.90
12049;DHT22;6085;49.452;8.502;2023-04-25T12:47:43;15.30;99.90
12049;DHT22;6085;49.452;8.502;2023-04-25T12:51:45;15.40;99.90
12049;DHT22;6085;49.452;8.502;2023-04-25T12:55:47;15.40;99.90
12049;DHT22;6085;49.452;8.502;2023-04-25T12:59:51;15.10;99.90
12049;DHT22;6085;49.452;8.502;2023-04-25T13:03:53;14.80;99.90
12049;DHT22;6085;49.452;8.502;2023-04-25T13:07:55;14.60;99.90
12049;DHT22;6085;49.452;8.502;2023-04-25T13:11:57;15.00;99.90
12049;DHT22;6085;49.452;8.502;2023-04-25T13:16:00;15.10;99.90
12049;DHT22;6085;49.452;8.502;2023-04-25T13:20:03;14.80;99.90
12049;DHT22;6085;49.452;8.502;2023-04-25T13:24:07;14.50;99.90
12049;DHT22;6085;49.452;8.502;2023-04-25T13:28:08;14.30;99.90
12049;DHT22;6085;49.452;8.502;2023-04-25T13:32:12;14.20;99.90
12049;DHT22;6085;49.452;8.502;2023-04-25T13:36:14;14.20;99.90
12049;DHT22;6085;49.452;8.502;2023-04-25T13:40:16;14.20;99.90
12049;DHT22;6085;49.452;8.502;2023-04-25T13:44:18;13.90;99.90
12049;DHT22;6085;49.452;8.502;2023-04-25T13:48:21;13.80;99.90
12049;DHT22;6085;49.452;8.502;2023-04-25T13:52:24;13.70;99.90
12049;DHT22;6085;49.452;8.502;2023-04-25T13:56:29;13.60;99.90
12049;DHT22;6085;49.452;8.502;2023-04-25T14:00:31;13.60;99.90
12049;DHT22;6085;49.452;8.502;2023-04-25T14:04:34;13.50;99.90
12049;DHT22;6085;49.452;8.502;2023-04-25T14:08:36;13.50;99.90
12049;DHT22;6085;49.452;8.502;2023-04-25T14:12:38;13.50;99.90
12049;DHT22;6085;49.452;8.502;2023-04-25T14:16:41;13.80;99.90
12049;DHT22;6085;49.452;8.502;2023-04-25T14:20:45;14.20;99.90
12049;DHT22;6085;49.452;8.502;2023-04-25T14:24:46;13.80;99.90
12049;DHT22;6085;49.452;8.502;2023-04-25T14:28:49;13.50;99.90
12049;DHT22;6085;49.452;8.502;2023-04-25T14:32:51;12.90;99.90
12049;DHT22;6085;49.452;8.502;2023-04-25T14:36:55;12.50;99.90
12049;DHT22;6085;49.452;8.502;2023-04-25T14:40:57;12.20;99.90
12049;DHT22;6085;49.452;8.502;2023-04-25T14:44:58;12.00;99.90
12049;DHT22;6085;49.452;8.502;2023-04-25T14:49:01;11.90;99.90
12049;DHT22;6085;49.452;8.502;2023-04-25T14:53:05;11.90;99.90
12049;DHT22;6085;49.452;8.502;2023-04-25T14:57:06;12.10;99.90
12049;DHT22;6085;49.452;8.502;2023-04-25T15:01:09;12.10;99.90
12049;DHT22;6085;49.452;8.502;2023-04-25T15:05:11;12.40;99.90
12049;DHT22;6085;49.452;8.502;2023-04-25T15:09:15;12.70;99.90
12049;DHT22;6085;49.452;8.502;2023-04-25T15:13:18;13.10;99.90
12049;DHT22;6085;49.452;8.502;2023-04-25T15:17:20;13.50;99.90
12049;DHT22;6085;49.452;8.502;2023-04-25T15:21:22;13.60;99.90
12049;DHT22;6085;49.452;8.502;2023-04-25T15:25:26;13.70;99.90
12049;DHT22;6085;49.452;8.502;2023-04-25T15:29:29;13.90;99.90
12049;DHT22;6085;49.452;8.502;2023-04-25T15:33:31;13.70;99.90
12049;DHT22;6085;49.452;8.502;2023-04-25T15:37:34;13.30;99.90
12049;DHT22;6085;49.452;8.502;2023-04-25T15:41:38;13.20;99.90
12049;DHT22;6085;49.452;8.502;2023-04-25T15:45:40;13.00;99.90
12049;DHT22;6085;49.452;8.502;2023-04-25T15:49:42;12.90;99.90
12049;DHT22;6085;49.452;8.502;2023-04-25T15:53:44;12.50;99.90
12049;DHT22;6085;49.452;8.502;2023-04-25T15:57:48;12.20;99.90
12049;DHT22;6085;49.452;8.502;2023-04-25T16:01:50;12.20;99.90
12049;DHT22;6085;49.452;8.502;2023-04-25T16:05:52;12.30;99.90
12049;DHT22;6085;49.452;8.502;2023-04-25T16:09:54;12.40;99.90
12049;DHT22;6085;49.452;8.502;2023-04-25T16:13:58;12.40;99.90
12049;DHT22;6085;49.452;8.502;2023-04-25T16:18:00;12.30;99.90
12049;DHT22;6085;49.452;8.502;2023-04-25T16:22:02;12.30;99.90
12049;DHT22;6085;49.452;8.502;2023-04-25T16:26:04;12.30;99.90
12049;DHT22;6085;49.452;8.502;2023-04-25T16:30:10;12.20;99.90
12049;DHT22;6085;49.452;8.502;2023-04-25T16:34:13;12.20;99.90
12049;DHT22;6085;49.452;8.502;2023-04-25T16:38:15;12.20;99.90
12049;DHT22;6085;49.452;8.502;2023-04-25T16:42:17;12.10;99.90
12049;DHT22;6085;49.452;8.502;2023-04-25T16:46:20;11.90;99.90
12049;DHT22;6085;49.452;8.502;2023-04-25T16:50:23;11.90;99.90
12049;DHT22;6085;49.452;8.502;2023-04-25T16:54:26;11.70;99.90
12049;DHT22;6085;49.452;8.502;2023-04-25T16:58:28;11.70;99.90
12049;DHT22;6085;49.452;8.502;2023-04-25T17:02:31;11.60;99.90
12049;DHT22;6085;49.452;8.502;2023-04-25T17:06:33;11.50;99.90
12049;DHT22;6085;49.452;8.502;2023-04-25T17:10:36;11.40;99.90
12049;DHT22;6085;49.452;8.502;2023-04-25T17:14:38;11.30;99.90
12049;DHT22;6085;49.452;8.502;2023-04-25T17:18:42;11.30;99.90
12049;DHT22;6085;49.452;8.502;2023-04-25T17:22:44;11.20;99.90
12049;DHT22;6085;49.452;8.502;2023-04-25T17:26:46;11.00;99.90
12049;DHT22;6085;49.452;8.502;2023-04-25T17:30:48;11.00;99.90
12049;DHT22;6085;49.452;8.502;2023-04-25T17:34:51;10.90;99.90
12049;DHT22;6085;49.452;8.502;2023-04-25T17:38:53;10.80;99.90
12049;DHT22;6085;49.452;8.502;2023-04-25T17:42:55;10.70;99.90
12049;DHT22;6085;49.452;8.502;2023-04-25T17:46:57;10.60;99.90
12049;DHT22;6085;49.452;8.502;2023-04-25T17:51:02;10.50;99.90
12049;DHT22;6085;49.452;8.502;2023-04-25T17:55:05;10.50;99.90
12049;DHT22;6085;49.452;8.502;2023-04-25T17:59:07;10.40;99.90
12049;DHT22;6085;49.452;8.502;2023-04-25T18:03:09;10.40;99.90
12049;DHT22;6085;49.452;8.502;2023-04-25T18:07:12;10.30;99.90
12049;DHT22;6085;49.452;8.502;2023-04-25T18:11:15;10.30;99.90
12049;DHT22;6085;49.452;8.502;2023-04-25T18:15:17;10.20;99.90
12049;DHT22;6085;49.452;8.502;2023-04-25T18:19:21;10.10;99.90
12049;DHT22;6085;49.452;8.502;2023-04-25T18:23:25;10.10;99.90
12049;DHT22;6085;49.452;8.502;2023-04-25T18:27:27;10.00;99.90
12049;DHT22;6085;49.452;8.502;2023-04-25T18:31:29;10.00;99.90
12049;DHT22;6085;49.452;8.502;2023-04-25T18:35:31;10.00;99.90
12049;DHT22;6085;49.452;8.502;2023-04-25T18:39:35;10.00;99.90
12049;DHT22;6085;49.452;8.502;2023-04-25T18:43:36;10.00;99.90
12049;DHT22;6085;49.452;8.502;2023-04-25T18:47:38;10.00;99.90
12049;DHT22;6085;49.452;8.502;2023-04-25T18:51:40;9.90;99.90
12049;DHT22;6085;49.452;8.502;2023-04-25T18:55:44;9.80;99.90
12049;DHT22;6085;49.452;8.502;2023-04-25T18:59:46;9.70;99.90
12049;DHT22;6085;49.452;8.502;2023-04-25T19:03:49;9.70;99.90
12049;DHT22;6085;49.452;8.502;2023-04-25T19:07:55;9.60;99.90
12049;DHT22;6085;49.452;8.502;2023-04-25T19:11:59;9.60;99.90
12049;DHT22;6085;49.452;8.502;2023-04-25T19:16:02;9.50;99.90
12049;DHT22;6085;49.452;8.502;2023-04-25T19:20:05;9.40;99.90
12049;DHT22;6085;49.452;8.502;2023-04-25T19:24:07;9.40;99.90
12049;DHT22;6085;49.452;8.502;2023-04-25T19:28:10;9.30;99.90
12049;DHT22;6085;49.452;8.502;2023-04-25T19:32:13;9.20;99.90
12049;DHT22;6085;49.452;8.502;2023-04-25T19:36:15;9.20;99.90
12049;DHT22;6085;49.452;8.502;2023-04-25T19:40:18;9.10;99.90
12049;DHT22;6085;49.452;8.502;2023-04-25T19:44:23;9.10;99.90
12049;DHT22;6085;49.452;8.502;2023-04-25T19:48:25;9.00;99.90
12049;DHT22;6085;49.452;8.502;2023-04-25T19:52:27;9.00;99.90
12049;DHT22;6085;49.452;8.502;2023-04-25T19:56:31;9.00;99.90
12049;DHT22;6085;49.452;8.502;2023-04-25T20:00:34;9.00;99.90
12049;DHT22;6085;49.452;8.502;2023-04-25T20:04:36;9.00;99.90
12049;DHT22;6085;49.452;8.502;2023-04-25T20:08:39;9.00;99.90
12049;DHT22;6085;49.452;8.502;2023-04-25T20:12:43;9.00;99.90
12049;DHT22;6085;49.452;8.502;2023-04-25T20:16:46;9.00;99.90
12049;DHT22;6085;49.452;8.502;2023-04-25T20:20:49;9.00;99.90
12049;DHT22;6085;49.452;8.502;2023-04-25T20:24:51;9.00;99.90
12049;DHT22;6085;49.452;8.502;2023-04-25T20:28:53;9.00;99.90
12049;DHT22;6085;49.452;8.502;2023-04-25T20:32:56;8.90;99.90
12049;DHT22;6085;49.452;8.502;2023-04-25T20:36:58;8.80;99.90
12049;DHT22;6085;49.452;8.502;2023-04-25T20:41:02;8.60;99.90
12049;DHT22;6085;49.452;8.502;2023-04-25T20:45:05;8.50;99.90
12049;DHT22;6085;49.452;8.502;2023-04-25T20:49:13;8.40;99.90
12049;DHT22;6085;49.452;8.502;2023-04-25T20:53:15;8.30;99.90
12049;DHT22;6085;49.452;8.502;2023-04-25T20:57:17;8.30;99.90
12049;DHT22;6085;49.452;8.502;2023-04-25T21:01:19;8.20;99.90
12049;DHT22;6085;49.452;8.502;2023-04-25T21:05:22;8.10;99.90
12049;DHT22;6085;49.452;8.502;2023-04-25T21:09:24;8.10;99.90
12049;DHT22;6085;49.452;8.502;2023-04-25T21:13:26;8.00;99.90
12049;DHT22;6085;49.452;8.502;2023-04-25T21:17:28;7.90;99.90
12049;DHT22;6085;49.452;8.502;2023-04-25T21:21:31;7.80;99.90
12049;DHT22;6085;49.452;8.502;2023-04-25T21:25:33;7.80;99.90
12049;DHT22;6085;49.452;8.502;2023-04-25T21:29:35;7.80;99.90
12049;DHT22;6085;49.452;8.502;2023-04-25T21:33:37;7.70;99.90
12049;DHT22;6085;49.452;8.502;2023-04-25T21:37:40;7.60;99.90
12049;DHT22;6085;49.452;8.502;2023-04-25T21:41:43;7.40;99.90
12049;DHT22;6085;49.452;8.502;2023-04-25T21:45:45;7.10;99.90
12049;DHT22;6085;49.452;8.502;2023-04-25T21:49:47;6.80;99.90
12049;DHT22;6085;49.452;8.502;2023-04-25T21:53:50;6.50;99.90
12049;DHT22;6085;49.452;8.502;2023-04-25T21:57:52;6.20;99.90
12049;DHT22;6085;49.452;8.502;2023-04-25T22:01:54;6.00;99.90
12049;DHT22;6085;49.452;8.502;2023-04-25T22:05:56;6.00;99.90
12049;DHT22;6085;49.452;8.502;2023-04-25T22:10:00;6.00;99.90
12049;DHT22;6085;49.452;8.502;2023-04-25T22:14:01;6.00;99.90
12049;DHT22;6085;49.452;8.502;2023-04-25T22:18:04;6.00;99.90
12049;DHT22;6085;49.452;8.502;2023-04-25T22:22:06;6.10;99.90
12049;DHT22;6085;49.452;8.502;2023-04-25T22:26:09;6.10;99.90
12049;DHT22;6085;49.452;8.502;2023-04-25T22:30:12;6.00;99.90
12049;DHT22;6085;49.452;8.502;2023-04-25T22:34:14;5.90;99.90
12049;DHT22;6085;49.452;8.502;2023-04-25T22:38:16;5.80;99.90
12049;DHT22;6085;49.452;8.502;2023-04-25T22:42:19;5.70;99.90
12049;DHT22;6085;49.452;8.502;2023-04-25T22:46:21;5.50;99.90
12049;DHT22;6085;49.452;8.502;2023-04-25T22:50:24;5.50;99.90
12049;DHT22;6085;49.452;8.502;2023-04-25T22:54:27;5.40;99.90
12049;DHT22;6085;49.452;8.502;2023-04-25T22:58:31;5.40;99.90
12049;DHT22;6085;49.452;8.502;2023-04-25T23:02:33;5.50;99.90
12049;DHT22;6085;49.452;8.502;2023-04-25T23:06:35;5.50;99.90
12049;DHT22;6085;49.452;8.502;2023-04-25T23:10:37;5.50;99.90
12049;DHT22;6085;49.452;8.502;2023-04-25T23:14:40;5.50;99.90
12049;DHT22;6085;49.452;8.502;2023-04-25T23:18:42;5.50;99.90
12049;DHT22;6085;49.452;8.502;2023-04-25T23:22:44;5.50;99.90
12049;DHT22;6085;49.452;8.502;2023-04-25T23:26:46;5.60;99.90
12049;DHT22;6085;49.452;8.502;2023-04-25T23:30:50;5.60;99.90
12049;DHT22;6085;49.452;8.502;2023-04-25T23:34:51;5.60;99.90
12049;DHT22;6085;49.452;8.502;2023-04-25T23:38:53;5.50;99.90
12049;DHT22;6085;49.452;8.502;2023-04-25T23:42:56;5.50;99.90
12049;DHT22;6085;49.452;8.502;2023-04-25T23:47:00;5.50;99.90
12049;DHT22;6085;49.452;8.502;2023-04-25T23:51:02;5.40;99.90
12049;DHT22;6085;49.452;8.502;2023-04-25T23:55:04;5.40;99.90
12049;DHT22;6085;49.452;8.502;2023-04-25T23:59:06;5.40;99.90
